sensor_id;sensor_type;location;lat;lon;timestamp;pressure;altitude;pressure_sealevel;temperature;humidity
41040;BME280;48586;50.122;18.972;2023-03-26T00:00:46;97585.44;;;8.16;54.42
41040;BME280;48586;50.122;18.972;2023-03-26T00:02:56;97582.22;;;8.14;54.15
41040;BME280;48586;50.122;18.972;2023-03-26T00:05:01;97584.00;;;8.08;54.43
41040;BME280;48586;50.122;18.972;2023-03-26T00:07:06;97582.38;;;8.07;54.75
41040;BME280;48586;50.122;18.972;2023-03-26T00:09:11;97586.78;;;8.02;55.08
41040;BME280;48586;50.122;18.972;2023-03-26T00:11:19;97583.41;;;8.06;55.40
41040;BME280;48586;50.122;18.972;2023-03-26T00:13:25;97584.31;;;8.12;55.16
41040;BME280;48586;50.122;18.972;2023-03-26T00:15:31;97583.88;;;8.03;55.28
41040;BME280;48586;50.122;18.972;2023-03-26T00:17:38;97585.59;;;8.09;55.56
41040;BME280;48586;50.122;18.972;2023-03-26T00:19:45;97575.94;;;8.03;56.97
41040;BME280;48586;50.122;18.972;2023-03-26T00:21:50;97590.16;;;7.97;56.99
41040;BME280;48586;50.122;18.972;2023-03-26T00:24:02;97590.28;;;7.90;57.57
41040;BME280;48586;50.122;18.972;2023-03-26T00:26:10;97604.16;;;7.81;59.48
41040;BME280;48586;50.122;18.972;2023-03-26T00:28:16;97587.16;;;7.65;68.73
41040;BME280;48586;50.122;18.972;2023-03-26T00:30:23;97581.09;;;7.41;70.56
41040;BME280;48586;50.122;18.972;2023-03-26T00:32:28;97581.50;;;7.09;69.97
41040;BME280;48586;50.122;18.972;2023-03-26T00:34:33;97574.69;;;6.90;70.78
41040;BME280;48586;50.122;18.972;2023-03-26T00:36:45;97569.19;;;6.80;71.79
41040;BME280;48586;50.122;18.972;2023-03-26T00:38:54;97567.13;;;6.70;71.64
41040;BME280;48586;50.122;18.972;2023-03-26T00:40:59;97575.72;;;6.65;70.92
41040;BME280;48586;50.122;18.972;2023-03-26T00:43:07;97568.81;;;6.64;70.74
41040;BME280;48586;50.122;18.972;2023-03-26T00:45:18;97571.25;;;6.66;70.08
41040;BME280;48586;50.122;18.972;2023-03-26T00:47:25;97566.19;;;6.64;69.80
41040;BME280;48586;50.122;18.972;2023-03-26T00:49:32;97561.25;;;6.68;70.02
41040;BME280;48586;50.122;18.972;2023-03-26T00:51:37;97565.50;;;6.69;69.31
41040;BME280;48586;50.122;18.972;2023-03-26T00:53:47;97564.47;;;6.70;69.07
41040;BME280;48586;50.122;18.972;2023-03-26T00:55:53;97551.00;;;6.71;68.79
41040;BME280;48586;50.122;18.972;2023-03-26T00:58:01;97553.75;;;6.77;69.29
41040;BME280;48586;50.122;18.972;2023-03-26T01:00:09;97550.66;;;6.80;68.01
41040;BME280;48586;50.122;18.972;2023-03-26T01:02:19;97548.13;;;6.85;67.14
41040;BME280;48586;50.122;18.972;2023-03-26T01:04:28;97549.72;;;6.86;66.91
41040;BME280;48586;50.122;18.972;2023-03-26T01:06:39;97538.56;;;6.84;65.86
41040;BME280;48586;50.122;18.972;2023-03-26T01:08:50;97538.44;;;6.90;66.16
41040;BME280;48586;50.122;18.972;2023-03-26T01:11:05;97536.03;;;6.89;66.13
41040;BME280;48586;50.122;18.972;2023-03-26T01:13:15;97547.78;;;6.93;65.62
41040;BME280;48586;50.122;18.972;2023-03-26T01:15:20;97543.72;;;6.90;65.12
41040;BME280;48586;50.122;18.972;2023-03-26T01:17:30;97546.16;;;6.92;65.42
41040;BME280;48586;50.122;18.972;2023-03-26T01:19:47;97549.81;;;6.91;64.92
41040;BME280;48586;50.122;18.972;2023-03-26T01:21:57;97544.44;;;6.86;64.22
41040;BME280;48586;50.122;18.972;2023-03-26T01:24:07;97530.03;;;6.82;64.11
41040;BME280;48586;50.122;18.972;2023-03-26T01:26:34;97541.69;;;6.81;63.73
41040;BME280;48586;50.122;18.972;2023-03-26T01:28:54;97534.19;;;6.78;63.88
41040;BME280;48586;50.122;18.972;2023-03-26T01:31:11;97532.03;;;6.74;63.38
41040;BME280;48586;50.122;18.972;2023-03-26T01:33:30;97534.88;;;6.73;63.48
41040;BME280;48586;50.122;18.972;2023-03-26T01:35:48;97539.81;;;6.69;63.56
41040;BME280;48586;50.122;18.972;2023-03-26T01:38:19;97537.31;;;6.63;63.11
41040;BME280;48586;50.122;18.972;2023-03-26T01:40:36;97532.03;;;6.63;63.64
41040;BME280;48586;50.122;18.972;2023-03-26T01:42:54;97532.38;;;6.66;63.33
41040;BME280;48586;50.122;18.972;2023-03-26T01:45:10;97533.97;;;6.67;63.12
41040;BME280;48586;50.122;18.972;2023-03-26T01:47:20;97541.09;;;6.67;63.03
41040;BME280;48586;50.122;18.972;2023-03-26T01:49:26;97538.91;;;6.64;63.08
41040;BME280;48586;50.122;18.972;2023-03-26T01:51:34;97535.91;;;6.60;62.79
41040;BME280;48586;50.122;18.972;2023-03-26T01:53:44;97530.06;;;6.58;63.01
41040;BME280;48586;50.122;18.972;2023-03-26T01:56:05;97526.38;;;6.59;62.69
41040;BME280;48586;50.122;18.972;2023-03-26T01:58:26;97533.50;;;6.59;62.43
41040;BME280;48586;50.122;18.972;2023-03-26T02:00:44;97528.47;;;6.57;62.70
41040;BME280;48586;50.122;18.972;2023-03-26T02:03:14;97522.13;;;6.58;62.23
41040;BME280;48586;50.122;18.972;2023-03-26T02:05:32;97527.41;;;6.58;61.83
41040;BME280;48586;50.122;18.972;2023-03-26T02:07:44;97529.63;;;6.61;61.90
41040;BME280;48586;50.122;18.972;2023-03-26T02:10:00;97523.94;;;6.69;61.90
41040;BME280;48586;50.122;18.972;2023-03-26T02:12:18;97526.38;;;6.71;61.24
41040;BME280;48586;50.122;18.972;2023-03-26T02:14:28;97525.91;;;6.74;61.02
41040;BME280;48586;50.122;18.972;2023-03-26T02:16:34;97525.22;;;6.79;60.61
41040;BME280;48586;50.122;18.972;2023-03-26T02:18:39;97528.69;;;6.79;60.61
41040;BME280;48586;50.122;18.972;2023-03-26T02:20:44;97526.69;;;6.86;60.71
41040;BME280;48586;50.122;18.972;2023-03-26T02:22:49;97526.25;;;6.89;59.77
41040;BME280;48586;50.122;18.972;2023-03-26T02:24:55;97529.78;;;6.95;59.69
41040;BME280;48586;50.122;18.972;2023-03-26T02:26:59;97513.47;;;6.98;59.77
41040;BME280;48586;50.122;18.972;2023-03-26T02:29:08;97520.25;;;7.06;59.77
41040;BME280;48586;50.122;18.972;2023-03-26T02:31:16;97523.78;;;7.11;59.27
41040;BME280;48586;50.122;18.972;2023-03-26T02:33:23;97529.09;;;7.11;59.33
41040;BME280;48586;50.122;18.972;2023-03-26T02:35:28;97535.09;;;7.07;58.85
41040;BME280;48586;50.122;18.972;2023-03-26T02:37:37;97525.09;;;7.09;59.05
41040;BME280;48586;50.122;18.972;2023-03-26T02:39:48;97532.09;;;7.15;58.91
41040;BME280;48586;50.122;18.972;2023-03-26T02:42:01;97539.31;;;7.19;59.29
41040;BME280;48586;50.122;18.972;2023-03-26T02:44:15;97538.75;;;7.17;60.77
41040;BME280;48586;50.122;18.972;2023-03-26T02:46:32;97531.63;;;7.06;61.75
41040;BME280;48586;50.122;18.972;2023-03-26T02:49:02;97525.19;;;6.90;61.40
41040;BME280;48586;50.122;18.972;2023-03-26T02:51:08;97528.09;;;6.89;61.87
41040;BME280;48586;50.122;18.972;2023-03-26T02:53:44;97526.00;;;6.91;62.14
41040;BME280;48586;50.122;18.972;2023-03-26T02:56:14;97513.56;;;6.91;61.52
41040;BME280;48586;50.122;18.972;2023-03-26T02:58:38;97515.91;;;6.88;60.41
41040;BME280;48586;50.122;18.972;2023-03-26T03:00:45;97507.97;;;6.88;60.16
41040;BME280;48586;50.122;18.972;2023-03-26T03:03:18;97505.41;;;6.93;60.76
41040;BME280;48586;50.122;18.972;2023-03-26T03:05:44;97497.22;;;6.94;60.18
41040;BME280;48586;50.122;18.972;2023-03-26T03:08:09;97504.47;;;6.99;60.09
41040;BME280;48586;50.122;18.972;2023-03-26T03:10:35;97509.88;;;7.04;59.48
41040;BME280;48586;50.122;18.972;2023-03-26T03:12:54;97504.44;;;7.11;59.54
41040;BME280;48586;50.122;18.972;2023-03-26T03:14:59;97503.19;;;7.13;59.33
41040;BME280;48586;50.122;18.972;2023-03-26T03:17:07;97506.75;;;7.19;59.91
41040;BME280;48586;50.122;18.972;2023-03-26T03:19:12;97511.44;;;7.17;59.58
41040;BME280;48586;50.122;18.972;2023-03-26T03:21:17;97503.03;;;7.20;61.13
41040;BME280;48586;50.122;18.972;2023-03-26T03:23:23;97505.44;;;7.21;60.46
41040;BME280;48586;50.122;18.972;2023-03-26T03:25:39;97499.13;;;7.22;60.32
41040;BME280;48586;50.122;18.972;2023-03-26T03:27:43;97501.78;;;7.22;60.54
41040;BME280;48586;50.122;18.972;2023-03-26T03:29:49;97504.44;;;7.22;59.96
41040;BME280;48586;50.122;18.972;2023-03-26T03:32:21;97501.88;;;7.28;60.22
41040;BME280;48586;50.122;18.972;2023-03-26T03:34:32;97511.66;;;7.27;59.41
41040;BME280;48586;50.122;18.972;2023-03-26T03:36:39;97497.63;;;7.27;59.30
41040;BME280;48586;50.122;18.972;2023-03-26T03:39:02;97508.44;;;7.25;59.23
41040;BME280;48586;50.122;18.972;2023-03-26T03:41:10;97504.78;;;7.26;58.90
41040;BME280;48586;50.122;18.972;2023-03-26T03:43:19;97502.91;;;7.27;59.15
41040;BME280;48586;50.122;18.972;2023-03-26T03:45:39;97510.63;;;7.28;59.07
41040;BME280;48586;50.122;18.972;2023-03-26T03:48:05;97512.31;;;7.34;58.91
41040;BME280;48586;50.122;18.972;2023-03-26T03:50:16;97505.75;;;7.37;58.91
41040;BME280;48586;50.122;18.972;2023-03-26T03:52:41;97510.72;;;7.33;58.21
41040;BME280;48586;50.122;18.972;2023-03-26T03:54:46;97517.16;;;7.37;58.78
41040;BME280;48586;50.122;18.972;2023-03-26T03:57:02;97519.09;;;7.42;58.55
41040;BME280;48586;50.122;18.972;2023-03-26T03:59:16;97524.97;;;7.44;58.72
41040;BME280;48586;50.122;18.972;2023-03-26T04:01:23;97515.56;;;7.48;58.70
41040;BME280;48586;50.122;18.972;2023-03-26T04:03:47;97523.50;;;7.48;58.32
41040;BME280;48586;50.122;18.972;2023-03-26T04:05:57;97513.38;;;7.45;58.24
41040;BME280;48586;50.122;18.972;2023-03-26T04:08:03;97525.19;;;7.42;58.26
41040;BME280;48586;50.122;18.972;2023-03-26T04:10:32;97515.78;;;7.46;58.23
41040;BME280;48586;50.122;18.972;2023-03-26T04:12:42;97510.34;;;7.53;57.63
41040;BME280;48586;50.122;18.972;2023-03-26T04:14:50;97514.69;;;7.59;57.60
41040;BME280;48586;50.122;18.972;2023-03-26T04:16:56;97511.47;;;7.57;57.31
41040;BME280;48586;50.122;18.972;2023-03-26T04:19:04;97514.94;;;7.58;57.17
41040;BME280;48586;50.122;18.972;2023-03-26T04:21:08;97515.72;;;7.58;57.01
41040;BME280;48586;50.122;18.972;2023-03-26T04:23:17;97509.16;;;7.61;57.32
41040;BME280;48586;50.122;18.972;2023-03-26T04:25:26;97511.81;;;7.61;57.00
41040;BME280;48586;50.122;18.972;2023-03-26T04:27:41;97506.75;;;7.59;57.09
41040;BME280;48586;50.122;18.972;2023-03-26T04:29:54;97510.69;;;7.57;57.38
41040;BME280;48586;50.122;18.972;2023-03-26T04:31:59;97514.34;;;7.56;57.31
41040;BME280;48586;50.122;18.972;2023-03-26T04:34:19;97504.00;;;7.54;57.31
41040;BME280;48586;50.122;18.972;2023-03-26T04:36:55;97502.16;;;7.55;57.29
41040;BME280;48586;50.122;18.972;2023-03-26T04:39:05;97511.41;;;7.52;57.24
41040;BME280;48586;50.122;18.972;2023-03-26T04:41:38;97499.66;;;7.48;57.13
41040;BME280;48586;50.122;18.972;2023-03-26T04:43:51;97507.03;;;7.46;56.89
41040;BME280;48586;50.122;18.972;2023-03-26T04:45:59;97498.59;;;7.49;57.24
41040;BME280;48586;50.122;18.972;2023-03-26T04:48:10;97508.16;;;7.38;56.77
41040;BME280;48586;50.122;18.972;2023-03-26T04:50:18;97510.72;;;7.33;56.97
41040;BME280;48586;50.122;18.972;2023-03-26T04:52:23;97499.19;;;7.39;56.95
41040;BME280;48586;50.122;18.972;2023-03-26T04:54:46;97505.63;;;7.43;56.97
41040;BME280;48586;50.122;18.972;2023-03-26T04:56:56;97504.97;;;7.48;56.94
41040;BME280;48586;50.122;18.972;2023-03-26T04:59:19;97499.50;;;7.43;56.48
41040;BME280;48586;50.122;18.972;2023-03-26T05:01:30;97496.44;;;7.46;56.32
41040;BME280;48586;50.122;18.972;2023-03-26T05:03:38;97509.22;;;7.49;56.76
41040;BME280;48586;50.122;18.972;2023-03-26T05:05:49;97503.91;;;7.49;56.46
41040;BME280;48586;50.122;18.972;2023-03-26T05:07:54;97509.22;;;7.49;56.46
41040;BME280;48586;50.122;18.972;2023-03-26T05:10:00;97505.97;;;7.47;56.58
41040;BME280;48586;50.122;18.972;2023-03-26T05:12:11;97506.09;;;7.52;56.80
41040;BME280;48586;50.122;18.972;2023-03-26T05:14:36;97508.25;;;7.55;56.50
41040;BME280;48586;50.122;18.972;2023-03-26T05:16:49;97505.38;;;7.57;56.81
41040;BME280;48586;50.122;18.972;2023-03-26T05:18:54;97502.47;;;7.58;56.20
41040;BME280;48586;50.122;18.972;2023-03-26T05:21:06;97504.56;;;7.56;56.30
41040;BME280;48586;50.122;18.972;2023-03-26T05:23:12;97502.03;;;7.61;55.98
41040;BME280;48586;50.122;18.972;2023-03-26T05:25:20;97508.41;;;7.48;55.50
41040;BME280;48586;50.122;18.972;2023-03-26T05:27:25;97503.28;;;7.59;55.49
41040;BME280;48586;50.122;18.972;2023-03-26T05:29:31;97497.97;;;7.59;55.79
41040;BME280;48586;50.122;18.972;2023-03-26T05:31:35;97498.44;;;7.56;55.62
41040;BME280;48586;50.122;18.972;2023-03-26T05:33:39;97502.72;;;7.57;55.68
41040;BME280;48586;50.122;18.972;2023-03-26T05:35:46;97509.38;;;7.59;55.44
41040;BME280;48586;50.122;18.972;2023-03-26T05:38:04;97511.94;;;7.54;55.05
41040;BME280;48586;50.122;18.972;2023-03-26T05:40:08;97506.97;;;7.58;55.52
41040;BME280;48586;50.122;18.972;2023-03-26T05:42:22;97508.59;;;7.59;55.38
41040;BME280;48586;50.122;18.972;2023-03-26T05:44:49;97524.81;;;7.62;55.30
41040;BME280;48586;50.122;18.972;2023-03-26T05:46:59;97513.19;;;7.63;55.28
41040;BME280;48586;50.122;18.972;2023-03-26T05:49:04;97514.66;;;7.71;55.14
41040;BME280;48586;50.122;18.972;2023-03-26T05:51:10;97511.94;;;7.83;54.95
41040;BME280;48586;50.122;18.972;2023-03-26T05:53:25;97524.81;;;7.91;54.46
41040;BME280;48586;50.122;18.972;2023-03-26T05:56:03;97518.38;;;7.87;54.00
41040;BME280;48586;50.122;18.972;2023-03-26T05:58:27;97510.50;;;7.92;53.91
41040;BME280;48586;50.122;18.972;2023-03-26T06:01:02;97519.94;;;7.99;53.84
41040;BME280;48586;50.122;18.972;2023-03-26T06:03:29;97506.41;;;8.01;53.47
41040;BME280;48586;50.122;18.972;2023-03-26T06:05:44;97520.56;;;8.07;53.59
41040;BME280;48586;50.122;18.972;2023-03-26T06:07:54;97525.41;;;8.10;53.54
41040;BME280;48586;50.122;18.972;2023-03-26T06:10:09;97524.69;;;8.14;53.25
41040;BME280;48586;50.122;18.972;2023-03-26T06:12:13;97523.63;;;8.15;53.01
41040;BME280;48586;50.122;18.972;2023-03-26T06:14:18;97543.97;;;8.10;52.65
41040;BME280;48586;50.122;18.972;2023-03-26T06:16:42;97532.06;;;8.12;53.39
41040;BME280;48586;50.122;18.972;2023-03-26T06:18:56;97523.28;;;8.12;53.22
41040;BME280;48586;50.122;18.972;2023-03-26T06:21:10;97531.84;;;8.14;53.05
41040;BME280;48586;50.122;18.972;2023-03-26T06:23:24;97528.31;;;8.08;53.39
41040;BME280;48586;50.122;18.972;2023-03-26T06:25:47;97534.41;;;8.09;53.10
41040;BME280;48586;50.122;18.972;2023-03-26T06:28:15;97532.06;;;8.12;52.90
41040;BME280;48586;50.122;18.972;2023-03-26T06:30:27;97525.34;;;8.21;53.26
41040;BME280;48586;50.122;18.972;2023-03-26T06:32:48;97528.94;;;8.32;53.07
41040;BME280;48586;50.122;18.972;2023-03-26T06:34:57;97519.94;;;8.33;52.40
41040;BME280;48586;50.122;18.972;2023-03-26T06:37:03;97539.22;;;8.29;52.80
41040;BME280;48586;50.122;18.972;2023-03-26T06:39:07;97520.31;;;8.25;52.76
41040;BME280;48586;50.122;18.972;2023-03-26T06:41:20;97520.84;;;8.39;52.86
41040;BME280;48586;50.122;18.972;2023-03-26T06:43:46;97529.81;;;8.38;52.86
41040;BME280;48586;50.122;18.972;2023-03-26T06:46:19;97527.97;;;8.55;52.33
41040;BME280;48586;50.122;18.972;2023-03-26T06:48:42;97517.25;;;8.67;51.79
41040;BME280;48586;50.122;18.972;2023-03-26T06:51:03;97517.09;;;8.73;51.20
41040;BME280;48586;50.122;18.972;2023-03-26T06:53:26;97517.88;;;8.91;51.22
41040;BME280;48586;50.122;18.972;2023-03-26T06:55:40;97534.34;;;8.93;50.80
41040;BME280;48586;50.122;18.972;2023-03-26T06:58:00;97515.59;;;8.99;50.70
41040;BME280;48586;50.122;18.972;2023-03-26T07:00:24;97513.66;;;9.12;51.00
41040;BME280;48586;50.122;18.972;2023-03-26T07:02:47;97516.53;;;9.10;50.28
41040;BME280;48586;50.122;18.972;2023-03-26T07:05:11;97523.91;;;9.03;50.49
41040;BME280;48586;50.122;18.972;2023-03-26T07:07:33;97515.47;;;9.11;50.30
41040;BME280;48586;50.122;18.972;2023-03-26T07:09:57;97521.38;;;9.13;50.26
41040;BME280;48586;50.122;18.972;2023-03-26T07:12:40;97515.31;;;9.18;49.75
41040;BME280;48586;50.122;18.972;2023-03-26T07:15:08;97517.34;;;9.11;50.32
41040;BME280;48586;50.122;18.972;2023-03-26T07:17:27;97523.91;;;9.03;49.96
41040;BME280;48586;50.122;18.972;2023-03-26T07:19:39;97522.28;;;9.24;51.02
41040;BME280;48586;50.122;18.972;2023-03-26T07:21:44;97522.13;;;9.31;49.65
41040;BME280;48586;50.122;18.972;2023-03-26T07:24:09;97513.44;;;9.40;50.19
41040;BME280;48586;50.122;18.972;2023-03-26T07:26:53;97515.97;;;9.52;50.13
41040;BME280;48586;50.122;18.972;2023-03-26T07:29:17;97515.97;;;9.52;49.12
41040;BME280;48586;50.122;18.972;2023-03-26T07:31:53;97508.06;;;9.57;49.03
41040;BME280;48586;50.122;18.972;2023-03-26T07:34:39;97512.00;;;9.55;49.45
41040;BME280;48586;50.122;18.972;2023-03-26T07:37:23;97516.53;;;9.54;49.10
41040;BME280;48586;50.122;18.972;2023-03-26T07:39:53;97505.25;;;9.69;49.26
41040;BME280;48586;50.122;18.972;2023-03-26T07:42:44;97521.91;;;9.59;48.73
41040;BME280;48586;50.122;18.972;2023-03-26T07:45:28;97521.00;;;9.75;49.00
41040;BME280;48586;50.122;18.972;2023-03-26T07:48:25;97528.34;;;9.90;48.60
41040;BME280;48586;50.122;18.972;2023-03-26T07:51:13;97527.03;;;9.93;48.38
41040;BME280;48586;50.122;18.972;2023-03-26T07:53:48;97537.66;;;9.93;47.63
41040;BME280;48586;50.122;18.972;2023-03-26T07:56:16;97544.41;;;9.73;47.41
41040;BME280;48586;50.122;18.972;2023-03-26T07:58:58;97523.34;;;9.72;47.94
41040;BME280;48586;50.122;18.972;2023-03-26T08:01:57;97529.56;;;9.78;47.87
41040;BME280;48586;50.122;18.972;2023-03-26T08:04:38;97519.50;;;9.85;48.07
41040;BME280;48586;50.122;18.972;2023-03-26T08:07:36;97514.56;;;9.71;48.20
41040;BME280;48586;50.122;18.972;2023-03-26T08:10:05;97516.13;;;9.67;48.64
41040;BME280;48586;50.122;18.972;2023-03-26T08:12:51;97522.31;;;9.73;48.49
41040;BME280;48586;50.122;18.972;2023-03-26T08:15:11;97519.16;;;9.76;47.92
41040;BME280;48586;50.122;18.972;2023-03-26T08:17:32;97517.34;;;9.82;47.78
41040;BME280;48586;50.122;18.972;2023-03-26T08:20:01;97506.28;;;9.90;48.58
41040;BME280;48586;50.122;18.972;2023-03-26T08:22:20;97515.09;;;9.95;48.11
41040;BME280;48586;50.122;18.972;2023-03-26T08:24:37;97505.91;;;10.08;48.24
41040;BME280;48586;50.122;18.972;2023-03-26T08:26:54;97505.47;;;10.21;47.44
41040;BME280;48586;50.122;18.972;2023-03-26T08:29:19;97505.06;;;10.40;47.45
41040;BME280;48586;50.122;18.972;2023-03-26T08:31:38;97513.25;;;10.60;48.38
41040;BME280;48586;50.122;18.972;2023-03-26T08:33:46;97523.16;;;10.70;45.85
41040;BME280;48586;50.122;18.972;2023-03-26T08:35:53;97490.53;;;10.90;45.32
41040;BME280;48586;50.122;18.972;2023-03-26T08:37:57;97508.09;;;10.91;45.58
41040;BME280;48586;50.122;18.972;2023-03-26T08:40:04;97479.88;;;10.95;45.37
41040;BME280;48586;50.122;18.972;2023-03-26T08:42:38;97479.38;;;10.98;44.52
41040;BME280;48586;50.122;18.972;2023-03-26T08:54:43;97476.34;;;11.57;42.88
41040;BME280;48586;50.122;18.972;2023-03-26T08:57:18;97475.59;;;11.67;43.19
41040;BME280;48586;50.122;18.972;2023-03-26T09:03:16;97459.38;;;12.09;43.31
41040;BME280;48586;50.122;18.972;2023-03-26T09:09:20;97471.09;;;12.44;39.47
41040;BME280;48586;50.122;18.972;2023-03-26T09:12:16;97458.56;;;12.34;39.45
41040;BME280;48586;50.122;18.972;2023-03-26T09:18:09;97465.22;;;12.47;39.79
41040;BME280;48586;50.122;18.972;2023-03-26T09:21:11;97460.44;;;12.29;39.45
41040;BME280;48586;50.122;18.972;2023-03-26T09:27:10;97458.00;;;12.52;39.78
41040;BME280;48586;50.122;18.972;2023-03-26T09:32:53;97469.47;;;12.48;40.23
41040;BME280;48586;50.122;18.972;2023-03-26T09:35:31;97453.47;;;12.53;40.04
41040;BME280;48586;50.122;18.972;2023-03-26T09:37:56;97464.72;;;12.40;40.03
41040;BME280;48586;50.122;18.972;2023-03-26T09:40:15;97467.09;;;12.26;39.66
41040;BME280;48586;50.122;18.972;2023-03-26T09:42:36;97462.03;;;12.30;39.97
41040;BME280;48586;50.122;18.972;2023-03-26T09:45:21;97457.78;;;12.29;39.03
41040;BME280;48586;50.122;18.972;2023-03-26T09:48:21;97458.31;;;12.15;39.66
41040;BME280;48586;50.122;18.972;2023-03-26T09:51:02;97450.84;;;12.02;40.00
41040;BME280;48586;50.122;18.972;2023-03-26T09:53:44;97471.13;;;11.98;40.33
41040;BME280;48586;50.122;18.972;2023-03-26T09:56:24;97448.72;;;12.14;40.61
41040;BME280;48586;50.122;18.972;2023-03-26T09:59:09;97448.41;;;12.26;40.19
41040;BME280;48586;50.122;18.972;2023-03-26T10:01:37;97450.53;;;12.49;40.45
41040;BME280;48586;50.122;18.972;2023-03-26T10:04:12;97450.25;;;12.51;39.47
41040;BME280;48586;50.122;18.972;2023-03-26T10:06:54;97432.81;;;12.74;39.75
41040;BME280;48586;50.122;18.972;2023-03-26T10:09:35;97426.91;;;12.82;40.07
41040;BME280;48586;50.122;18.972;2023-03-26T10:12:07;97431.38;;;13.12;38.72
41040;BME280;48586;50.122;18.972;2023-03-26T10:14:28;97420.28;;;13.39;39.35
41040;BME280;48586;50.122;18.972;2023-03-26T10:16:54;97418.88;;;13.52;38.78
41040;BME280;48586;50.122;18.972;2023-03-26T10:19:30;97426.38;;;13.50;37.54
41040;BME280;48586;50.122;18.972;2023-03-26T10:22:01;97417.88;;;13.38;37.91
41040;BME280;48586;50.122;18.972;2023-03-26T10:27:13;97416.72;;;12.99;38.38
41040;BME280;48586;50.122;18.972;2023-03-26T10:29:56;97424.28;;;12.87;38.14
41040;BME280;48586;50.122;18.972;2023-03-26T10:32:30;97416.78;;;12.74;38.53
41040;BME280;48586;50.122;18.972;2023-03-26T10:34:57;97431.78;;;12.65;38.58
41040;BME280;48586;50.122;18.972;2023-03-26T10:37:23;97446.53;;;12.42;39.48
41040;BME280;48586;50.122;18.972;2023-03-26T10:42:45;97428.38;;;12.39;39.67
41040;BME280;48586;50.122;18.972;2023-03-26T10:45:30;97424.66;;;12.40;39.53
41040;BME280;48586;50.122;18.972;2023-03-26T10:48:00;97431.56;;;12.46;39.95
41040;BME280;48586;50.122;18.972;2023-03-26T10:50:37;97424.59;;;12.55;40.11
41040;BME280;48586;50.122;18.972;2023-03-26T10:53:06;97420.84;;;12.61;39.62
41040;BME280;48586;50.122;18.972;2023-03-26T10:55:20;97414.41;;;12.72;39.66
41040;BME280;48586;50.122;18.972;2023-03-26T10:57:42;97402.09;;;12.76;38.01
41040;BME280;48586;50.122;18.972;2023-03-26T10:59:55;97405.03;;;12.85;38.05
41040;BME280;48586;50.122;18.972;2023-03-26T11:02:24;97403.69;;;12.77;37.46
41040;BME280;48586;50.122;18.972;2023-03-26T11:04:43;97396.72;;;12.82;38.10
41040;BME280;48586;50.122;18.972;2023-03-26T11:07:07;97401.47;;;13.00;38.15
41040;BME280;48586;50.122;18.972;2023-03-26T11:09:32;97394.22;;;13.11;37.52
41040;BME280;48586;50.122;18.972;2023-03-26T11:11:55;97388.81;;;13.21;38.46
41040;BME280;48586;50.122;18.972;2023-03-26T11:14:17;97390.66;;;13.25;37.08
41040;BME280;48586;50.122;18.972;2023-03-26T11:16:37;97385.72;;;13.48;36.55
41040;BME280;48586;50.122;18.972;2023-03-26T11:18:55;97391.50;;;13.60;36.31
41040;BME280;48586;50.122;18.972;2023-03-26T11:21:10;97389.38;;;13.62;36.05
41040;BME280;48586;50.122;18.972;2023-03-26T11:23:33;97403.50;;;13.68;35.51
41040;BME280;48586;50.122;18.972;2023-03-26T11:26:01;97377.97;;;13.81;35.69
41040;BME280;48586;50.122;18.972;2023-03-26T11:28:30;97373.63;;;13.90;35.51
41040;BME280;48586;50.122;18.972;2023-03-26T11:30:52;97387.69;;;13.71;35.60
41040;BME280;48586;50.122;18.972;2023-03-26T11:33:06;97378.28;;;13.79;35.36
41040;BME280;48586;50.122;18.972;2023-03-26T11:35:24;97369.06;;;13.90;35.09
41040;BME280;48586;50.122;18.972;2023-03-26T11:37:40;97368.59;;;14.41;35.14
41040;BME280;48586;50.122;18.972;2023-03-26T11:39:53;97358.56;;;15.00;33.95
41040;BME280;48586;50.122;18.972;2023-03-26T11:42:06;97362.19;;;15.47;33.46
41040;BME280;48586;50.122;18.972;2023-03-26T11:44:20;97361.94;;;15.62;32.47
41040;BME280;48586;50.122;18.972;2023-03-26T11:46:37;97365.06;;;15.50;32.59
41040;BME280;48586;50.122;18.972;2023-03-26T11:48:49;97361.97;;;15.24;32.46
41040;BME280;48586;50.122;18.972;2023-03-26T11:51:03;97356.09;;;14.80;32.61
41040;BME280;48586;50.122;18.972;2023-03-26T11:53:13;97347.44;;;14.64;33.29
41040;BME280;48586;50.122;18.972;2023-03-26T11:55:21;97354.69;;;14.39;33.50
41040;BME280;48586;50.122;18.972;2023-03-26T11:57:31;97355.53;;;14.59;33.83
41040;BME280;48586;50.122;18.972;2023-03-26T11:59:49;97343.06;;;14.73;34.07
41040;BME280;48586;50.122;18.972;2023-03-26T12:02:18;97365.63;;;14.67;32.74
41040;BME280;48586;50.122;18.972;2023-03-26T12:04:34;97349.91;;;14.36;32.77
41040;BME280;48586;50.122;18.972;2023-03-26T12:06:51;97354.16;;;14.13;33.35
41040;BME280;48586;50.122;18.972;2023-03-26T12:09:01;97350.88;;;13.92;33.56
41040;BME280;48586;50.122;18.972;2023-03-26T12:11:10;97348.25;;;13.82;33.92
41040;BME280;48586;50.122;18.972;2023-03-26T12:13:28;97349.69;;;14.04;34.15
41040;BME280;48586;50.122;18.972;2023-03-26T12:15:42;97354.06;;;14.23;34.22
41040;BME280;48586;50.122;18.972;2023-03-26T12:17:51;97341.56;;;14.14;33.98
41040;BME280;48586;50.122;18.972;2023-03-26T12:19:59;97335.50;;;14.03;34.89
41040;BME280;48586;50.122;18.972;2023-03-26T12:22:26;97318.69;;;13.97;35.52
41040;BME280;48586;50.122;18.972;2023-03-26T12:24:34;97340.31;;;14.06;35.38
41040;BME280;48586;50.122;18.972;2023-03-26T12:26:41;97337.94;;;13.99;35.27
41040;BME280;48586;50.122;18.972;2023-03-26T12:28:50;97334.09;;;14.11;35.35
41040;BME280;48586;50.122;18.972;2023-03-26T12:30:59;97323.16;;;14.07;35.09
41040;BME280;48586;50.122;18.972;2023-03-26T12:33:15;97319.72;;;14.02;35.08
41040;BME280;48586;50.122;18.972;2023-03-26T12:35:29;97317.09;;;13.96;35.88
41040;BME280;48586;50.122;18.972;2023-03-26T12:37:37;97319.34;;;13.84;35.18
41040;BME280;48586;50.122;18.972;2023-03-26T12:39:44;97319.25;;;13.60;35.77
41040;BME280;48586;50.122;18.972;2023-03-26T12:41:55;97310.81;;;13.48;35.73